Time;durP1;ratioP1;P1;durP2;ratioP2;P2;SDS_P1;SDS_P2;PMS_P1;PMS_P2;Temp;Humidity;BMP_temperature;BMP_pressure;BME280_temperature;BME280_humidity;BME280_pressure;Samples;Min_cycle;Max_cycle;Signal;HPM_P1;HPM_P2
2022/03/11 00:01:12;;;;;;;20.33;8.48;;;;;;;;;;4969017;28;100125;-72
2022/03/11 00:03:39;;;;;;;27.38;9.93;;;;;;;;;;4952097;28;100254;-71
2022/03/11 00:06:06;;;;;;;18.55;8.30;;;;;;;;;;4969334;28;101715;-72
2022/03/11 00:08:33;;;;;;;23.67;9.05;;;;;;;;;;4967554;28;103197;-72
2022/03/11 00:11:00;;;;;;;22.75;8.68;;;;;;;;;;4952114;28;100053;-72
2022/03/11 00:13:27;;;;;;;22.10;8.80;;;;;;;;;;4969268;28;100266;-72
2022/03/11 00:15:56;;;;;;;23.92;8.48;;;;;;;;;;4969546;28;100656;-73
2022/03/11 00:18:23;;;;;;;26.83;10.05;;;;;;;;;;4969635;28;99842;-72
2022/03/11 00:20:50;;;;;;;33.72;11.73;;;;;;;;;;4968995;28;100325;-73
2022/03/11 00:23:16;;;;;;;28.35;9.88;;;;;;;;;;4968197;28;100888;-72
2022/03/11 00:25:43;;;;;;;23.15;8.77;;;;;;;;;;4952396;28;100513;-72
2022/03/11 00:28:10;;;;;;;26.27;9.63;;;;;;;;;;4968558;28;100105;-72
2022/03/11 00:30:37;;;;;;;32.58;10.98;;;;;;;;;;4966844;28;100040;-72
2022/03/11 00:33:04;;;;;;;28.23;11.02;;;;;;;;;;4968552;28;100193;-72
2022/03/11 00:35:32;;;;;;;31.45;11.02;;;;;;;;;;4967921;28;101069;-71
2022/03/11 00:37:59;;;;;;;27.25;10.35;;;;;;;;;;4951866;28;100183;-71
2022/03/11 00:40:26;;;;;;;25.02;10.68;;;;;;;;;;4968265;28;100175;-71
2022/03/11 00:42:52;;;;;;;25.52;9.95;;;;;;;;;;4984620;28;100385;-71
2022/03/11 00:45:19;;;;;;;29.67;10.13;;;;;;;;;;4968741;28;100536;-72
2022/03/11 00:47:49;;;;;;;30.60;10.00;;;;;;;;;;4968776;28;101645;-72
2022/03/11 00:50:16;;;;;;;25.92;10.38;;;;;;;;;;4970969;28;100225;-72
2022/03/11 00:52:42;;;;;;;26.05;10.02;;;;;;;;;;4972202;28;100239;-72
2022/03/11 00:55:10;;;;;;;27.95;9.48;;;;;;;;;;4955161;28;100544;-72
2022/03/11 00:57:37;;;;;;;25.75;9.35;;;;;;;;;;4972130;28;100738;-72
2022/03/11 01:00:06;;;;;;;27.17;10.45;;;;;;;;;;4971163;28;103882;-72
2022/03/11 01:02:36;;;;;;;22.55;9.70;;;;;;;;;;4972207;28;100442;-72
2022/03/11 01:05:04;;;;;;;24.15;9.23;;;;;;;;;;4938488;28;103481;-72
2022/03/11 01:07:30;;;;;;;23.27;9.75;;;;;;;;;;4954387;28;100250;-74
2022/03/11 01:09:57;;;;;;;25.33;10.35;;;;;;;;;;4955160;28;100159;-73
2022/03/11 01:12:24;;;;;;;24.33;9.75;;;;;;;;;;4954853;28;100923;-72
2022/03/11 01:14:51;;;;;;;27.05;10.60;;;;;;;;;;4954944;28;100622;-72
2022/03/11 01:17:19;;;;;;;26.92;10.13;;;;;;;;;;4971079;28;100238;-72
2022/03/11 01:19:46;;;;;;;25.75;9.95;;;;;;;;;;4972370;28;100123;-73
2022/03/11 01:22:13;;;;;;;27.50;9.80;;;;;;;;;;4954444;28;100178;-72
2022/03/11 01:24:40;;;;;;;27.08;9.57;;;;;;;;;;4987174;28;100675;-72
2022/03/11 01:27:07;;;;;;;26.48;9.18;;;;;;;;;;4972058;28;100107;-72
2022/03/11 01:29:34;;;;;;;19.75;7.85;;;;;;;;;;4972297;28;100090;-72
2022/03/11 01:32:01;;;;;;;21.23;8.30;;;;;;;;;;4970618;28;100251;-72
2022/03/11 01:34:28;;;;;;;21.10;8.93;;;;;;;;;;4970540;28;100669;-72
2022/03/11 01:36:55;;;;;;;21.75;8.45;;;;;;;;;;4938594;28;99995;-72
2022/03/11 01:39:21;;;;;;;24.95;8.80;;;;;;;;;;4970973;28;99968;-72
2022/03/11 01:41:48;;;;;;;24.60;9.38;;;;;;;;;;4971853;28;100176;-72
2022/03/11 01:44:15;;;;;;;21.65;7.68;;;;;;;;;;4971636;28;100575;-72
2022/03/11 01:46:42;;;;;;;20.50;8.68;;;;;;;;;;4970455;28;100151;-72
2022/03/11 01:49:09;;;;;;;22.02;8.77;;;;;;;;;;4971431;28;100016;-72
2022/03/11 01:51:38;;;;;;;23.52;9.35;;;;;;;;;;4970053;28;100180;-72
2022/03/11 01:54:05;;;;;;;21.52;8.73;;;;;;;;;;4971767;28;100553;-72
2022/03/11 01:56:32;;;;;;;22.17;8.50;;;;;;;;;;4971440;28;100231;-72
2022/03/11 01:58:59;;;;;;;21.20;8.85;;;;;;;;;;4970126;28;100108;-74
2022/03/11 02:01:26;;;;;;;19.52;8.15;;;;;;;;;;4970707;28;100180;-73
2022/03/11 02:03:57;;;;;;;17.40;7.43;;;;;;;;;;4954117;28;100676;-73
2022/03/11 02:06:24;;;;;;;23.08;8.85;;;;;;;;;;4970272;28;100131;-73
2022/03/11 02:08:51;;;;;;;21.98;7.93;;;;;;;;;;4937248;28;100262;-73
2022/03/11 02:11:18;;;;;;;15.93;7.22;;;;;;;;;;4968930;28;100294;-74
2022/03/11 02:13:53;;;;;;;20.15;8.20;;;;;;;;;;4969565;28;100604;-73
2022/03/11 02:16:25;;;;;;;19.30;8.00;;;;;;;;;;4969832;28;100189;-73
2022/03/11 02:18:52;;;;;;;21.15;8.85;;;;;;;;;;4953983;28;100183;-73
2022/03/11 02:21:20;;;;;;;19.50;7.80;;;;;;;;;;4969854;28;100269;-72
2022/03/11 02:23:51;;;;;;;19.65;7.97;;;;;;;;;;4953185;28;101152;-73
2022/03/11 02:26:20;;;;;;;18.17;7.32;;;;;;;;;;4969522;28;100197;-73
2022/03/11 02:28:51;;;;;;;18.42;8.48;;;;;;;;;;4970286;28;102626;-73
2022/03/11 02:31:18;;;;;;;25.80;8.82;;;;;;;;;;4969695;28;100306;-72
2022/03/11 02:33:45;;;;;;;25.80;10.27;;;;;;;;;;4969212;28;100694;-73
2022/03/11 02:36:12;;;;;;;23.38;9.02;;;;;;;;;;4970330;28;100230;-73
2022/03/11 02:38:39;;;;;;;30.02;10.10;;;;;;;;;;4969620;28;100115;-73
2022/03/11 02:41:09;;;;;;;27.02;10.70;;;;;;;;;;4969481;28;100224;-73
2022/03/11 02:43:36;;;;;;;22.73;9.52;;;;;;;;;;4969561;28;100545;-73
2022/03/11 02:46:03;;;;;;;20.98;8.75;;;;;;;;;;4968880;28;100176;-73
2022/03/11 02:48:30;;;;;;;23.75;10.05;;;;;;;;;;4970016;28;100111;-73
2022/03/11 02:50:57;;;;;;;24.05;9.63;;;;;;;;;;4951339;28;103945;-73
2022/03/11 02:53:24;;;;;;;25.48;8.88;;;;;;;;;;4970499;28;101751;-73
2022/03/11 02:55:50;;;;;;;22.73;8.75;;;;;;;;;;4969186;28;101621;-73
2022/03/11 02:58:17;;;;;;;21.35;8.07;;;;;;;;;;4969282;28;100098;-74
2022/03/11 03:00:44;;;;;;;21.80;8.57;;;;;;;;;;4968613;28;100302;-73
2022/03/11 03:03:11;;;;;;;21.08;8.45;;;;;;;;;;4966466;28;103579;-73
2022/03/11 03:05:38;;;;;;;22.80;9.32;;;;;;;;;;4969812;28;100174;-73
2022/03/11 03:08:06;;;;;;;27.55;9.10;;;;;;;;;;4937020;28;100407;-73
2022/03/11 03:10:33;;;;;;;23.95;8.75;;;;;;;;;;4968764;28;100269;-73
2022/03/11 03:13:02;;;;;;;20.40;8.20;;;;;;;;;;4969648;28;100669;-74
2022/03/11 03:15:29;;;;;;;25.17;9.27;;;;;;;;;;4970306;28;100116;-73
2022/03/11 03:17:56;;;;;;;24.90;9.13;;;;;;;;;;4969389;28;100197;-72
2022/03/11 03:20:23;;;;;;;19.77;8.70;;;;;;;;;;4968836;28;100131;-73
2022/03/11 03:22:50;;;;;;;22.55;8.75;;;;;;;;;;4969902;28;100839;-72
2022/03/11 03:25:17;;;;;;;22.10;8.98;;;;;;;;;;4968355;28;100148;-73
2022/03/11 03:27:44;;;;;;;26.58;10.18;;;;;;;;;;4968320;28;100057;-73
2022/03/11 03:30:11;;;;;;;25.63;9.10;;;;;;;;;;4984733;28;100434;-73
2022/03/11 03:32:41;;;;;;;25.85;10.23;;;;;;;;;;4969464;28;100646;-72
2022/03/11 03:35:10;;;;;;;25.77;9.75;;;;;;;;;;4969636;28;100788;-72
2022/03/11 03:37:37;;;;;;;25.08;9.68;;;;;;;;;;4970091;28;100087;-71
2022/03/11 03:40:05;;;;;;;30.30;11.35;;;;;;;;;;4969026;28;100216;-72
2022/03/11 03:42:32;;;;;;;29.45;9.90;;;;;;;;;;4969981;28;100663;-72
2022/03/11 03:44:59;;;;;;;29.35;10.63;;;;;;;;;;4968801;28;100184;-72
2022/03/11 03:47:26;;;;;;;31.67;11.10;;;;;;;;;;4968882;28;100142;-72
2022/03/11 03:49:53;;;;;;;27.80;10.32;;;;;;;;;;4967745;28;100181;-72
2022/03/11 03:52:20;;;;;;;29.65;10.98;;;;;;;;;;4969745;28;100830;-72
2022/03/11 03:54:47;;;;;;;24.30;10.25;;;;;;;;;;4969440;28;100052;-71
2022/03/11 03:57:14;;;;;;;27.77;10.02;;;;;;;;;;4985244;28;100902;-72
2022/03/11 03:59:41;;;;;;;28.80;10.05;;;;;;;;;;4936439;28;100330;-72
2022/03/11 04:02:07;;;;;;;33.20;12.88;;;;;;;;;;4969404;28;100569;-72
2022/03/11 04:04:34;;;;;;;30.98;10.38;;;;;;;;;;4968431;28;100120;-73
2022/03/11 04:07:01;;;;;;;30.58;11.93;;;;;;;;;;4970330;28;99891;-72
2022/03/11 04:09:28;;;;;;;31.25;11.18;;;;;;;;;;4968112;28;100418;-72
2022/03/11 04:11:55;;;;;;;25.88;10.45;;;;;;;;;;4952407;28;100574;-73
2022/03/11 04:14:22;;;;;;;31.92;11.48;;;;;;;;;;4969289;28;100025;-73
2022/03/11 04:16:48;;;;;;;40.10;12.05;;;;;;;;;;4968787;28;100030;-72
2022/03/11 04:19:17;;;;;;;36.08;13.48;;;;;;;;;;4968563;28;100181;-73
2022/03/11 04:21:44;;;;;;;35.00;14.38;;;;;;;;;;4968475;28;105310;-73
2022/03/11 04:24:14;;;;;;;27.80;11.05;;;;;;;;;;4969844;28;100108;-72
2022/03/11 04:26:43;;;;;;;23.10;11.02;;;;;;;;;;4972358;28;99975;-72
2022/03/11 04:29:10;;;;;;;29.73;11.70;;;;;;;;;;4972108;28;100271;-72
2022/03/11 04:31:37;;;;;;;30.17;12.05;;;;;;;;;;4972323;28;100633;-72
2022/03/11 04:34:04;;;;;;;31.13;11.85;;;;;;;;;;4947520;28;99887;-72
2022/03/11 04:36:38;;;;;;;29.80;12.88;;;;;;;;;;4972272;28;99962;-72
2022/03/11 04:39:06;;;;;;;38.65;14.73;;;;;;;;;;4971693;28;100244;-72
2022/03/11 04:41:33;;;;;;;32.10;12.23;;;;;;;;;;4955279;28;100709;-72
2022/03/11 04:44:00;;;;;;;24.70;10.30;;;;;;;;;;4973186;28;101451;-73
2022/03/11 04:46:27;;;;;;;20.52;8.57;;;;;;;;;;4972040;28;100027;-71
2022/03/11 04:48:54;;;;;;;17.48;7.95;;;;;;;;;;4972919;28;100322;-72
2022/03/11 04:51:22;;;;;;;20.50;9.57;;;;;;;;;;4971326;28;101205;-72
2022/03/11 04:53:50;;;;;;;24.42;9.75;;;;;;;;;;4955983;28;99966;-72
2022/03/11 04:56:17;;;;;;;18.60;8.18;;;;;;;;;;4971852;28;100068;-72
2022/03/11 04:58:43;;;;;;;23.98;9.27;;;;;;;;;;4972831;28;100174;-72
2022/03/11 05:01:10;;;;;;;20.48;8.10;;;;;;;;;;4970593;28;100609;-73
2022/03/11 05:03:37;;;;;;;20.65;8.88;;;;;;;;;;4955353;28;99948;-73
2022/03/11 05:06:09;;;;;;;24.67;9.30;;;;;;;;;;4971800;28;100117;-72
2022/03/11 05:08:36;;;;;;;19.35;7.15;;;;;;;;;;4954716;28;100211;-73
2022/03/11 05:11:03;;;;;;;24.38;8.77;;;;;;;;;;4971115;28;101712;-72
2022/03/11 05:13:30;;;;;;;17.15;6.55;;;;;;;;;;4955222;28;100113;-72
2022/03/11 05:15:57;;;;;;;18.20;8.57;;;;;;;;;;4971735;28;100041;-74
2022/03/11 05:18:25;;;;;;;22.88;8.98;;;;;;;;;;4954889;28;100247;-73
2022/03/11 05:20:52;;;;;;;21.65;10.68;;;;;;;;;;4971339;28;100789;-73
2022/03/11 05:23:19;;;;;;;24.98;11.02;;;;;;;;;;4971587;28;100500;-73
2022/03/11 05:25:46;;;;;;;20.00;7.70;;;;;;;;;;4972054;28;100604;-72
2022/03/11 05:28:12;;;;;;;16.63;7.15;;;;;;;;;;4971621;28;100171;-72
2022/03/11 05:30:40;;;;;;;14.20;5.57;;;;;;;;;;4971020;28;100578;-72
2022/03/11 05:33:13;;;;;;;22.73;9.60;;;;;;;;;;4972182;28;100671;-72
2022/03/11 05:35:41;;;;;;;30.10;9.85;;;;;;;;;;4970635;28;100061;-73
2022/03/11 05:38:07;;;;;;;31.02;11.68;;;;;;;;;;4971428;28;100278;-72
2022/03/11 05:40:34;;;;;;;29.02;11.15;;;;;;;;;;4972099;28;100651;-72
2022/03/11 05:43:02;;;;;;;31.65;10.75;;;;;;;;;;4939004;28;100045;-72
2022/03/11 05:45:28;;;;;;;28.65;12.13;;;;;;;;;;4972035;28;104970;-73
2022/03/11 05:47:55;;;;;;;43.92;15.30;;;;;;;;;;4970098;28;100194;-73
2022/03/11 05:50:22;;;;;;;29.98;11.32;;;;;;;;;;4986591;28;101723;-73
2022/03/11 05:52:50;;;;;;;29.52;11.73;;;;;;;;;;4986797;28;100015;-73
2022/03/11 05:55:17;;;;;;;28.92;11.30;;;;;;;;;;4970387;28;100057;-74
2022/03/11 05:57:45;;;;;;;24.88;9.98;;;;;;;;;;4986658;28;100320;-72
2022/03/11 06:00:12;;;;;;;18.65;7.68;;;;;;;;;;4971098;28;101097;-71
2022/03/11 06:02:39;;;;;;;21.52;8.27;;;;;;;;;;4971803;28;100325;-71
2022/03/11 06:05:09;;;;;;;20.92;7.53;;;;;;;;;;4971860;28;100026;-72
2022/03/11 06:07:37;;;;;;;17.17;7.43;;;;;;;;;;4969989;28;100341;-72
2022/03/11 06:10:04;;;;;;;21.20;7.15;;;;;;;;;;4971932;28;100714;-72
2022/03/11 06:12:31;;;;;;;18.33;7.35;;;;;;;;;;4970111;28;100187;-72
2022/03/11 06:14:58;;;;;;;23.77;8.02;;;;;;;;;;4971493;28;99978;-72
2022/03/11 06:17:25;;;;;;;28.02;10.73;;;;;;;;;;4970960;28;100225;-73
2022/03/11 06:19:52;;;;;;;23.00;9.25;;;;;;;;;;4954006;28;100609;-73
2022/03/11 06:22:18;;;;;;;21.40;8.50;;;;;;;;;;4971521;28;99941;-73
2022/03/11 06:24:46;;;;;;;38.45;15.02;;;;;;;;;;4969731;28;100153;-74
2022/03/11 06:27:13;;;;;;;36.33;12.90;;;;;;;;;;4986320;28;100261;-73
2022/03/11 06:29:39;;;;;;;37.85;14.88;;;;;;;;;;4971046;28;100564;-73
2022/03/11 06:32:09;;;;;;;40.67;14.82;;;;;;;;;;4986727;28;100021;-72
2022/03/11 06:34:37;;;;;;;29.13;12.63;;;;;;;;;;4969742;28;100116;-73
2022/03/11 06:37:04;;;;;;;23.08;10.68;;;;;;;;;;4969488;28;100319;-72
2022/03/11 06:39:31;;;;;;;19.40;8.00;;;;;;;;;;4986253;28;100780;-73
2022/03/11 06:41:57;;;;;;;23.20;9.55;;;;;;;;;;4970478;28;99990;-72
2022/03/11 06:44:30;;;;;;;22.30;9.32;;;;;;;;;;4953686;28;101255;-73
2022/03/11 06:46:57;;;;;;;18.05;7.43;;;;;;;;;;4968986;28;101590;-73
2022/03/11 06:49:24;;;;;;;15.10;5.95;;;;;;;;;;4968547;28;101832;-72
2022/03/11 06:51:51;;;;;;;13.18;5.30;;;;;;;;;;4970577;28;100061;-73
2022/03/11 06:54:18;;;;;;;15.02;6.47;;;;;;;;;;4953474;28;100110;-72
2022/03/11 06:56:45;;;;;;;23.20;8.55;;;;;;;;;;4953346;28;101599;-73
2022/03/11 06:59:11;;;;;;;17.00;7.70;;;;;;;;;;4969902;28;101103;-73
2022/03/11 07:01:38;;;;;;;19.13;6.95;;;;;;;;;;4969632;28;99901;-73
2022/03/11 07:04:06;;;;;;;15.38;5.47;;;;;;;;;;4970737;28;100018;-72
2022/03/11 07:06:32;;;;;;;16.67;7.63;;;;;;;;;;4970105;28;100282;-72
2022/03/11 07:08:59;;;;;;;15.52;6.03;;;;;;;;;;4968732;28;100658;-73
2022/03/11 07:11:26;;;;;;;15.00;5.60;;;;;;;;;;4970433;28;99973;-72
2022/03/11 07:13:53;;;;;;;14.40;5.55;;;;;;;;;;4970890;28;99929;-72
2022/03/11 07:16:20;;;;;;;14.88;5.82;;;;;;;;;;4952752;28;101567;-72
2022/03/11 07:18:47;;;;;;;16.63;6.50;;;;;;;;;;4970166;28;101695;-72
2022/03/11 07:21:15;;;;;;;15.75;6.30;;;;;;;;;;4970164;28;100109;-72
2022/03/11 07:23:42;;;;;;;16.80;6.78;;;;;;;;;;4953376;28;100038;-72
2022/03/11 07:26:08;;;;;;;17.65;7.18;;;;;;;;;;4970171;28;100267;-72
2022/03/11 07:28:35;;;;;;;17.88;8.02;;;;;;;;;;4970210;28;100561;-72
2022/03/11 07:31:02;;;;;;;13.35;6.55;;;;;;;;;;4969706;28;100093;-72
2022/03/11 07:33:29;;;;;;;11.23;4.75;;;;;;;;;;4970400;28;100025;-72
2022/03/11 07:35:56;;;;;;;10.73;5.00;;;;;;;;;;4970211;28;100165;-72
2022/03/11 07:38:30;;;;;;;13.20;5.10;;;;;;;;;;4968334;28;101002;-74
2022/03/11 07:40:58;;;;;;;10.88;5.03;;;;;;;;;;4969259;28;100010;-72
2022/03/11 07:43:26;;;;;;;11.57;5.45;;;;;;;;;;4968610;28;100165;-73
2022/03/11 07:45:53;;;;;;;14.32;4.78;;;;;;;;;;4951935;28;100434;-73
2022/03/11 07:48:20;;;;;;;11.25;4.40;;;;;;;;;;4969284;28;100587;-73
2022/03/11 07:50:47;;;;;;;13.95;5.20;;;;;;;;;;4967348;28;100439;-73
2022/03/11 07:53:13;;;;;;;11.95;5.10;;;;;;;;;;4968111;28;100065;-73
2022/03/11 07:55:40;;;;;;;12.18;5.65;;;;;;;;;;4966974;28;100444;-72
2022/03/11 07:58:07;;;;;;;15.18;5.03;;;;;;;;;;4968310;28;100578;-73
2022/03/11 08:00:37;;;;;;;13.90;5.75;;;;;;;;;;4950475;28;100128;-72
2022/03/11 08:03:04;;;;;;;11.82;4.68;;;;;;;;;;4965735;28;100622;-72
2022/03/11 08:05:31;;;;;;;12.60;4.75;;;;;;;;;;4965792;28;100752;-73
2022/03/11 08:07:58;;;;;;;12.15;4.47;;;;;;;;;;4965438;28;102184;-73
2022/03/11 08:10:25;;;;;;;13.50;4.35;;;;;;;;;;4965449;28;100133;-73
2022/03/11 08:12:53;;;;;;;11.63;5.38;;;;;;;;;;4949323;28;100541;-74
2022/03/11 08:15:20;;;;;;;10.05;4.45;;;;;;;;;;4964309;28;101394;-73
2022/03/11 08:17:47;;;;;;;9.27;4.15;;;;;;;;;;4965818;28;101484;-73
2022/03/11 08:20:18;;;;;;;10.25;4.10;;;;;;;;;;4966858;28;100152;-73
2022/03/11 08:22:45;;;;;;;11.52;4.50;;;;;;;;;;4967272;28;100461;-73
2022/03/11 08:25:12;;;;;;;14.32;5.00;;;;;;;;;;4966885;28;100282;-73
2022/03/11 08:27:40;;;;;;;8.68;3.45;;;;;;;;;;4950951;28;101300;-73
2022/03/11 08:30:08;;;;;;;9.75;3.65;;;;;;;;;;4950902;28;100033;-72
2022/03/11 08:32:35;;;;;;;9.40;3.47;;;;;;;;;;4968084;28;100033;-73
2022/03/11 08:35:02;;;;;;;9.38;4.50;;;;;;;;;;4968009;28;100867;-73
2022/03/11 08:37:37;;;;;;;15.02;5.60;;;;;;;;;;4969260;28;100606;-73
2022/03/11 08:40:06;;;;;;;12.82;5.03;;;;;;;;;;4968250;28;100133;-73
2022/03/11 08:42:35;;;;;;;12.60;5.10;;;;;;;;;;4967908;28;99951;-73
2022/03/11 08:45:06;;;;;;;15.10;5.82;;;;;;;;;;4966791;28;100165;-75
2022/03/11 08:47:33;;;;;;;12.70;5.90;;;;;;;;;;4967714;28;100573;-73
2022/03/11 08:50:02;;;;;;;17.75;6.35;;;;;;;;;;4969302;28;100117;-73
2022/03/11 08:52:30;;;;;;;12.93;5.65;;;;;;;;;;4951814;28;100063;-74
2022/03/11 08:54:57;;;;;;;16.73;5.97;;;;;;;;;;4967720;28;100212;-73
2022/03/11 08:57:24;;;;;;;13.23;6.00;;;;;;;;;;4951471;28;100843;-73
2022/03/11 08:59:51;;;;;;;12.70;5.25;;;;;;;;;;4951718;28;100127;-73
2022/03/11 09:02:23;;;;;;;14.02;6.38;;;;;;;;;;4967852;28;101421;-73
2022/03/11 09:04:51;;;;;;;18.40;5.45;;;;;;;;;;4964306;28;100248;-73
2022/03/11 09:07:18;;;;;;;11.82;5.93;;;;;;;;;;4967932;28;100493;-73
2022/03/11 09:09:45;;;;;;;13.35;6.13;;;;;;;;;;4966473;28;100259;-73
2022/03/11 09:12:11;;;;;;;13.65;6.13;;;;;;;;;;4953308;28;100095;-73
2022/03/11 09:14:39;;;;;;;14.43;6.68;;;;;;;;;;4970392;28;101380;-73
2022/03/11 09:17:08;;;;;;;12.90;6.03;;;;;;;;;;4971936;28;100570;-72
2022/03/11 09:19:36;;;;;;;15.95;6.63;;;;;;;;;;4936841;28;104144;-73
2022/03/11 09:22:17;;;;;;;15.40;6.95;;;;;;;;;;4966103;28;100267;-74
2022/03/11 09:24:52;;;;;;;15.85;6.75;;;;;;;;;;4970899;28;100276;-73
2022/03/11 09:27:32;;;;;;;16.05;7.20;;;;;;;;;;4936627;28;101189;-72
2022/03/11 09:29:59;;;;;;;18.35;7.03;;;;;;;;;;4968373;28;102926;-72
2022/03/11 09:32:27;;;;;;;17.23;6.85;;;;;;;;;;4968639;28;100167;-72
2022/03/11 09:34:54;;;;;;;15.73;7.45;;;;;;;;;;4968446;28;100580;-72
2022/03/11 09:37:21;;;;;;;26.90;11.52;;;;;;;;;;4967975;28;100559;-73
2022/03/11 09:39:48;;;;;;;21.38;9.38;;;;;;;;;;4945714;28;100292;-72
2022/03/11 09:42:14;;;;;;;21.40;8.02;;;;;;;;;;4968835;28;100087;-72
2022/03/11 09:44:42;;;;;;;21.58;9.98;;;;;;;;;;4966715;28;101606;-73
2022/03/11 09:47:09;;;;;;;15.52;7.65;;;;;;;;;;4945322;28;100578;-73
2022/03/11 09:49:36;;;;;;;23.80;10.13;;;;;;;;;;4952081;28;102325;-72
2022/03/11 09:52:08;;;;;;;24.67;8.65;;;;;;;;;;4968105;28;100221;-72
2022/03/11 09:54:35;;;;;;;20.40;9.05;;;;;;;;;;4936710;28;100767;-72
2022/03/11 09:57:02;;;;;;;14.90;7.38;;;;;;;;;;4968446;28;100867;-72
2022/03/11 09:59:28;;;;;;;18.38;7.85;;;;;;;;;;4967281;28;100286;-71
2022/03/11 10:02:16;;;;;;;18.33;7.20;;;;;;;;;;4967445;28;100234;-72
2022/03/11 10:04:48;;;;;;;17.63;7.45;;;;;;;;;;4968243;28;100389;-72
2022/03/11 10:07:34;;;;;;;17.42;7.97;;;;;;;;;;4953013;28;100633;-73
2022/03/11 10:10:15;;;;;;;16.95;7.88;;;;;;;;;;4970548;28;100127;-72
2022/03/11 10:13:03;;;;;;;20.58;7.95;;;;;;;;;;4969440;28;100272;-73
2022/03/11 10:15:29;;;;;;;15.52;7.93;;;;;;;;;;4969988;28;101349;-73
2022/03/11 10:17:57;;;;;;;17.27;8.43;;;;;;;;;;4970361;28;100745;-72
2022/03/11 10:20:25;;;;;;;20.40;7.03;;;;;;;;;;4968995;28;100041;-72
2022/03/11 10:22:52;;;;;;;16.60;7.22;;;;;;;;;;4967976;28;100055;-73
2022/03/11 10:25:20;;;;;;;18.67;7.45;;;;;;;;;;4952394;28;100362;-72
2022/03/11 10:28:03;;;;;;;17.08;6.75;;;;;;;;;;4968979;28;100718;-73
2022/03/11 10:30:32;;;;;;;15.50;6.60;;;;;;;;;;4969297;28;99978;-73
2022/03/11 10:33:00;;;;;;;15.32;7.57;;;;;;;;;;4969082;28;100180;-72
2022/03/11 10:35:34;;;;;;;17.52;7.78;;;;;;;;;;4969352;28;100809;-73
2022/03/11 10:38:09;;;;;;;14.73;6.32;;;;;;;;;;4969298;28;101907;-73
2022/03/11 10:40:52;;;;;;;19.48;6.68;;;;;;;;;;4962095;28;100028;-73
2022/03/11 10:43:22;;;;;;;12.93;5.35;;;;;;;;;;4952014;28;100095;-73
2022/03/11 10:45:50;;;;;;;16.33;6.43;;;;;;;;;;4952316;28;103514;-73
2022/03/11 10:48:18;;;;;;;13.75;6.57;;;;;;;;;;4985889;28;101049;-73
2022/03/11 10:50:47;;;;;;;15.40;6.50;;;;;;;;;;4933618;28;100160;-73
2022/03/11 10:53:14;;;;;;;16.20;7.15;;;;;;;;;;4953207;28;100051;-73
2022/03/11 10:55:41;;;;;;;13.75;5.47;;;;;;;;;;4984992;28;102185;-74
2022/03/11 10:58:09;;;;;;;17.50;6.82;;;;;;;;;;4968789;28;100621;-73
2022/03/11 11:00:40;;;;;;;13.80;5.45;;;;;;;;;;4966699;28;100185;-72
2022/03/11 11:03:09;;;;;;;15.10;5.60;;;;;;;;;;4953082;28;100275;-72
2022/03/11 11:05:36;;;;;;;12.18;5.65;;;;;;;;;;4951837;28;100222;-72
2022/03/11 11:08:05;;;;;;;17.80;5.70;;;;;;;;;;4969504;28;102204;-72
2022/03/11 11:10:37;;;;;;;14.27;5.40;;;;;;;;;;4952669;28;100096;-71
2022/03/11 11:13:04;;;;;;;10.98;4.93;;;;;;;;;;4951530;28;100042;-72
2022/03/11 11:15:32;;;;;;;16.45;5.70;;;;;;;;;;4968389;28;100524;-72
2022/03/11 11:18:00;;;;;;;12.10;5.00;;;;;;;;;;4952384;28;100611;-72
2022/03/11 11:20:38;;;;;;;12.55;5.50;;;;;;;;;;4951951;28;100094;-72
2022/03/11 11:23:06;;;;;;;10.52;4.55;;;;;;;;;;4984895;28;100204;-72
2022/03/11 11:25:34;;;;;;;10.23;4.65;;;;;;;;;;4951550;28;100162;-72
2022/03/11 11:28:03;;;;;;;16.70;5.43;;;;;;;;;;4967348;28;102225;-73
2022/03/11 11:30:30;;;;;;;14.07;6.03;;;;;;;;;;4950168;28;100251;-73
2022/03/11 11:32:58;;;;;;;13.05;5.50;;;;;;;;;;4952688;28;100116;-72
2022/03/11 11:35:33;;;;;;;13.48;4.93;;;;;;;;;;4950906;28;100177;-72
2022/03/11 11:38:02;;;;;;;11.65;4.95;;;;;;;;;;4967366;28;103046;-72
2022/03/11 11:40:32;;;;;;;10.85;4.93;;;;;;;;;;4947103;28;100089;-72
2022/03/11 11:43:14;;;;;;;9.02;4.70;;;;;;;;;;4952585;28;100144;-71
2022/03/11 11:45:42;;;;;;;13.25;5.20;;;;;;;;;;4969331;28;100173;-72
2022/03/11 11:48:45;;;;;;;9.20;4.85;;;;;;;;;;4951926;28;101205;-73
2022/03/11 11:51:16;;;;;;;10.60;4.00;;;;;;;;;;4967805;28;100980;-73
2022/03/11 11:53:53;;;;;;;11.73;5.05;;;;;;;;;;4952116;28;99974;-73
2022/03/11 11:56:30;;;;;;;13.30;5.25;;;;;;;;;;4935643;28;102872;-74
2022/03/11 11:58:58;;;;;;;11.15;4.57;;;;;;;;;;4968306;28;100570;-73
2022/03/11 12:01:46;;;;;;;11.13;4.95;;;;;;;;;;4969796;28;100101;-73
2022/03/11 12:04:22;;;;;;;12.30;4.78;;;;;;;;;;4967601;28;100161;-73
2022/03/11 12:07:00;;;;;;;11.55;4.55;;;;;;;;;;4968624;28;100263;-73
2022/03/11 12:09:42;;;;;;;11.07;4.22;;;;;;;;;;4966810;28;101185;-73
2022/03/11 12:12:19;;;;;;;11.70;4.55;;;;;;;;;;4961669;28;100034;-73
2022/03/11 12:15:16;;;;;;;8.82;4.30;;;;;;;;;;4969464;28;100192;-74
2022/03/11 12:17:44;;;;;;;10.18;4.50;;;;;;;;;;4964327;28;100192;-73
2022/03/11 12:20:33;;;;;;;9.10;4.45;;;;;;;;;;4967616;28;100571;-73
2022/03/11 12:23:06;;;;;;;14.45;5.32;;;;;;;;;;4960995;28;100077;-74
2022/03/11 12:25:39;;;;;;;14.43;4.68;;;;;;;;;;4968438;28;101761;-73
2022/03/11 12:28:19;;;;;;;9.68;4.10;;;;;;;;;;4968011;28;100605;-74
2022/03/11 12:30:55;;;;;;;11.60;4.70;;;;;;;;;;4968629;28;101108;-73
2022/03/11 12:33:26;;;;;;;11.05;5.20;;;;;;;;;;4968194;28;100638;-73
2022/03/11 12:35:54;;;;;;;11.70;4.97;;;;;;;;;;4967446;28;100116;-74
2022/03/11 12:38:26;;;;;;;12.43;4.72;;;;;;;;;;4967787;28;100226;-73
2022/03/11 12:40:53;;;;;;;10.27;4.60;;;;;;;;;;4951414;28;103586;-73
2022/03/11 12:43:21;;;;;;;9.60;4.90;;;;;;;;;;4952026;28;100284;-74
2022/03/11 12:45:52;;;;;;;13.48;5.05;;;;;;;;;;4967891;28;100136;-73
2022/03/11 12:48:22;;;;;;;10.68;4.57;;;;;;;;;;4953924;28;101652;-73
2022/03/11 12:50:49;;;;;;;11.23;4.57;;;;;;;;;;4938517;28;100536;-74
2022/03/11 12:53:16;;;;;;;12.70;4.78;;;;;;;;;;4971875;28;100363;-74
2022/03/11 12:55:44;;;;;;;11.77;4.60;;;;;;;;;;4971831;28;100194;-73
2022/03/11 12:58:16;;;;;;;10.88;4.75;;;;;;;;;;4969439;28;100611;-72
2022/03/11 13:00:43;;;;;;;10.07;4.38;;;;;;;;;;4954004;28;102306;-74
2022/03/11 13:03:12;;;;;;;11.43;4.70;;;;;;;;;;4971892;28;100089;-72
2022/03/11 13:05:48;;;;;;;9.85;5.05;;;;;;;;;;4969315;28;100179;-72
2022/03/11 13:08:17;;;;;;;9.68;4.70;;;;;;;;;;4966324;28;100322;-73
2022/03/11 13:10:45;;;;;;;11.88;5.20;;;;;;;;;;4952091;28;100728;-73
2022/03/11 13:13:12;;;;;;;10.82;5.10;;;;;;;;;;4970371;28;100292;-72
2022/03/11 13:15:40;;;;;;;10.25;4.57;;;;;;;;;;4969748;28;100195;-72
2022/03/11 13:18:08;;;;;;;9.02;4.53;;;;;;;;;;4954386;28;100271;-72
2022/03/11 13:20:42;;;;;;;11.02;5.38;;;;;;;;;;4951565;28;100929;-72
2022/03/11 13:23:14;;;;;;;14.18;5.60;;;;;;;;;;4983905;28;100058;-73
2022/03/11 13:25:48;;;;;;;14.27;5.28;;;;;;;;;;4969229;28;100115;-72
2022/03/11 13:28:25;;;;;;;;;;;;;;;;;;4970764;28;100238;-74
2022/03/11 13:30:54;;;;;;;11.73;5.15;;;;;;;;;;4954343;28;100945;-72
2022/03/11 13:33:29;;;;;;;12.00;5.10;;;;;;;;;;4966244;28;101723;-72
2022/03/11 13:36:11;;;;;;;14.25;5.00;;;;;;;;;;4954562;28;100575;-72
2022/03/11 13:38:44;;;;;;;14.63;5.32;;;;;;;;;;4968399;28;100617;-71
2022/03/11 13:41:23;;;;;;;13.10;5.18;;;;;;;;;;4953734;28;100803;-71
2022/03/11 13:44:19;;;;;;;11.68;4.68;;;;;;;;;;4954998;28;100142;-71
2022/03/11 13:46:55;;;;;;;10.95;4.55;;;;;;;;;;4985231;28;102187;-71
2022/03/11 13:49:47;;;;;;;13.35;5.15;;;;;;;;;;4969670;28;100480;-71
2022/03/11 13:52:14;;;;;;;;;;;;;;;;;;4969762;28;100697;-71
2022/03/11 13:54:42;;;;;;;11.10;3.83;;;;;;;;;;4970843;28;100200;-71
2022/03/11 13:57:20;;;;;;;12.52;5.13;;;;;;;;;;4968791;28;100530;-72
2022/03/11 13:59:48;;;;;;;13.82;5.28;;;;;;;;;;4969040;28;100250;-72
2022/03/11 14:02:17;;;;;;;14.73;5.35;;;;;;;;;;4953283;28;101121;-72
2022/03/11 14:04:44;;;;;;;12.80;4.95;;;;;;;;;;4953790;28;100148;-73
2022/03/11 14:07:15;;;;;;;11.43;5.00;;;;;;;;;;4937364;28;100159;-73
2022/03/11 14:09:42;;;;;;;12.23;5.32;;;;;;;;;;4968692;28;100561;-71
2022/03/11 14:12:10;;;;;;;16.45;4.97;;;;;;;;;;4970742;28;100584;-71
2022/03/11 14:14:42;;;;;;;15.68;5.22;;;;;;;;;;4968961;28;100090;-71
2022/03/11 14:17:10;;;;;;;8.05;4.22;;;;;;;;;;4968805;28;100186;-71
2022/03/11 14:19:38;;;;;;;11.43;4.75;;;;;;;;;;4953173;28;100358;-71
2022/03/11 14:22:05;;;;;;;12.98;5.18;;;;;;;;;;4951936;28;101166;-71
2022/03/11 14:24:32;;;;;;;11.73;5.43;;;;;;;;;;4968768;28;100109;-72
2022/03/11 14:26:59;;;;;;;11.45;4.35;;;;;;;;;;4970558;28;100582;-72